createdAt,value
2022-08-20T00:00:29.200Z,21.08
2022-08-20T00:03:02.069Z,21.14
2022-08-20T00:05:31.559Z,21.17
2022-08-20T00:08:00.419Z,21.14
2022-08-20T00:10:30.386Z,21.16
2022-08-20T00:12:57.795Z,21.21
2022-08-20T00:15:29.208Z,21.25
2022-08-20T00:17:56.433Z,21.30
2022-08-20T00:20:26.074Z,21.33
2022-08-20T00:22:53.193Z,21.38
2022-08-20T00:25:20.071Z,21.19
2022-08-20T00:27:48.341Z,21.23
2022-08-20T00:30:15.706Z,21.17
2022-08-20T00:32:44.393Z,21.18
2022-08-20T00:35:12.919Z,21.19
2022-08-20T00:37:40.153Z,21.35
2022-08-20T00:40:22.288Z,21.33
2022-08-20T00:42:53.858Z,21.42
2022-08-20T00:45:21.542Z,21.44
2022-08-20T00:47:51.520Z,21.34
2022-08-20T00:50:22.099Z,21.41
2022-08-20T00:52:51.819Z,21.47
2022-08-20T00:55:21.419Z,21.40
2022-08-20T00:58:01.533Z,21.44
2022-08-20T01:00:33.855Z,21.44
2022-08-20T01:03:00.917Z,21.40
2022-08-20T01:05:28.654Z,21.39
2022-08-20T01:07:57.140Z,21.41
2022-08-20T01:10:27.820Z,21.42
2022-08-20T01:12:59.470Z,21.46
2022-08-20T01:15:31.770Z,21.46
2022-08-20T01:18:01.018Z,21.44
2022-08-20T01:20:31.372Z,21.41
2022-08-20T01:23:24.919Z,21.39
2022-08-20T01:25:55.975Z,21.30
2022-08-20T01:28:37.403Z,21.24
2022-08-20T01:31:05.636Z,21.18
2022-08-20T01:33:32.921Z,21.10
2022-08-20T01:36:00.620Z,21.05
2022-08-20T01:38:28.516Z,21.02
2022-08-20T01:41:16.970Z,20.97
2022-08-20T01:43:46.733Z,20.89
2022-08-20T01:46:17.660Z,20.90
2022-08-20T01:48:46.806Z,20.87
2022-08-20T01:51:16.707Z,20.83
2022-08-20T01:53:47.287Z,20.81
2022-08-20T01:56:17.636Z,20.82
2022-08-20T01:58:46.783Z,20.83
2022-08-20T02:01:21.688Z,20.82
2022-08-20T02:03:49.143Z,20.83
2022-08-20T02:06:17.221Z,20.81
2022-08-20T02:08:44.338Z,20.71
2022-08-20T02:11:11.385Z,20.66
2022-08-20T02:13:40.871Z,20.63
2022-08-20T02:16:08.667Z,20.57
2022-08-20T02:18:35.838Z,20.48
2022-08-20T02:21:03.709Z,20.33
2022-08-20T02:23:30.589Z,20.26
2022-08-20T02:25:57.543Z,20.15
2022-08-20T02:28:24.542Z,20.04
2022-08-20T02:30:55.352Z,20.01
2022-08-20T02:33:24.283Z,19.94
2022-08-20T02:35:52.712Z,19.91
2022-08-20T02:38:19.685Z,19.84
2022-08-20T02:40:46.916Z,19.81
2022-08-20T02:43:14.534Z,19.80
2022-08-20T02:45:44.055Z,19.78
2022-08-20T02:48:18.587Z,19.71
2022-08-20T02:50:45.474Z,19.66
2022-08-20T02:53:12.340Z,19.60
2022-08-20T02:55:39.651Z,19.57
2022-08-20T02:58:06.566Z,19.53
2022-08-20T03:00:37.879Z,19.43
2022-08-20T03:03:05.824Z,19.40
2022-08-20T03:05:34.162Z,19.39
2022-08-20T03:08:01.127Z,19.39
2022-08-20T03:10:32.097Z,19.41
2022-08-20T03:13:01.600Z,19.41
2022-08-20T03:15:29.172Z,19.43
2022-08-20T03:17:56.678Z,19.40
2022-08-20T03:20:24.067Z,19.40
2022-08-20T03:22:54.746Z,19.42
2022-08-20T03:25:22.330Z,19.43
2022-08-20T03:27:54.534Z,19.43
2022-08-20T03:30:24.769Z,19.43
2022-08-20T03:32:51.918Z,19.42
2022-08-20T03:35:21.059Z,19.42
2022-08-20T03:37:56.179Z,19.44
2022-08-20T03:40:30.075Z,19.41
2022-08-20T03:42:58.504Z,19.36
2022-08-20T03:45:27.026Z,19.34
2022-08-20T03:47:55.291Z,19.34
2022-08-20T03:50:24.286Z,19.31
2022-08-20T03:52:52.709Z,19.22
2022-08-20T03:55:20.782Z,19.20
2022-08-20T03:57:52.495Z,19.25
2022-08-20T04:00:21.721Z,19.30
2022-08-20T04:02:49.011Z,19.28
2022-08-20T04:05:16.122Z,19.29
2022-08-20T04:07:43.039Z,19.30
2022-08-20T04:10:11.555Z,19.32
2022-08-20T04:12:48.654Z,19.37
2022-08-20T04:15:22.280Z,19.38
2022-08-20T04:17:50.482Z,19.39
2022-08-20T04:20:22.887Z,19.40
2022-08-20T04:22:50.725Z,19.41
2022-08-20T04:25:26.874Z,19.40
2022-08-20T04:27:53.860Z,19.40
2022-08-20T04:30:23.348Z,19.38
2022-08-20T04:32:50.242Z,19.37
2022-08-20T04:35:18.610Z,19.36
2022-08-20T04:37:46.748Z,19.31
2022-08-20T04:40:34.996Z,19.29
2022-08-20T04:43:02.240Z,19.29
2022-08-20T04:45:31.082Z,19.25
2022-08-20T04:47:58.208Z,19.26
2022-08-20T04:50:25.045Z,19.34
2022-08-20T04:52:53.146Z,19.40
2022-08-20T04:55:20.257Z,19.43
2022-08-20T04:57:47.134Z,19.43
2022-08-20T05:00:17.169Z,19.48
2022-08-20T05:02:45.478Z,19.50
2022-08-20T05:05:13.140Z,19.56
2022-08-20T05:07:41.505Z,19.61
2022-08-20T05:10:11.668Z,19.63
2022-08-20T05:12:40.563Z,19.65
2022-08-20T05:15:08.307Z,19.66
2022-08-20T05:17:35.126Z,19.69
2022-08-20T05:20:04.200Z,19.66
2022-08-20T05:22:31.037Z,19.69
2022-08-20T05:24:59.543Z,19.71
2022-08-20T05:27:27.123Z,19.72
2022-08-20T05:29:54.871Z,19.75
2022-08-20T05:32:22.347Z,19.79
2022-08-20T05:34:49.288Z,19.80
2022-08-20T05:37:17.912Z,19.75
2022-08-20T05:39:45.703Z,19.75
2022-08-20T05:42:12.662Z,19.76
2022-08-20T05:44:39.633Z,19.76
2022-08-20T05:47:06.673Z,19.79
2022-08-20T05:49:34.034Z,19.78
2022-08-20T05:52:00.967Z,19.84
2022-08-20T05:54:29.265Z,19.86
2022-08-20T05:56:56.441Z,19.87
2022-08-20T05:59:24.341Z,19.88
2022-08-20T06:01:52.511Z,19.79
2022-08-20T06:04:26.913Z,19.82
2022-08-20T06:06:56.612Z,19.87
2022-08-20T06:09:30.625Z,19.89
2022-08-20T06:12:01.591Z,19.90
2022-08-20T06:14:28.667Z,19.91
2022-08-20T06:16:57.843Z,19.88
2022-08-20T06:19:26.546Z,19.83
2022-08-20T06:21:54.106Z,19.77
2022-08-20T06:24:21.403Z,19.80
2022-08-20T06:26:48.364Z,19.79
2022-08-20T06:29:16.582Z,19.73
2022-08-20T06:31:43.605Z,19.68
2022-08-20T06:34:10.571Z,19.53
2022-08-20T06:36:37.473Z,19.53
2022-08-20T06:39:04.396Z,19.43
2022-08-20T06:41:36.297Z,19.45
2022-08-20T06:44:04.899Z,19.52
2022-08-20T06:46:33.357Z,19.56
2022-08-20T06:49:00.197Z,19.63
2022-08-20T06:51:27.199Z,19.72
2022-08-20T06:53:54.048Z,19.72
2022-08-20T06:56:21.325Z,19.75
2022-08-20T06:58:49.511Z,19.73
2022-08-20T07:01:20.876Z,19.73
2022-08-20T07:03:55.868Z,19.76
2022-08-20T07:06:25.988Z,19.65
2022-08-20T07:08:53.306Z,19.61
2022-08-20T07:11:27.033Z,19.55
2022-08-20T07:13:54.621Z,19.55
2022-08-20T07:16:21.716Z,19.54
2022-08-20T07:18:49.974Z,19.57
2022-08-20T07:21:17.467Z,19.66
2022-08-20T07:23:44.589Z,19.77
2022-08-20T07:26:12.876Z,19.86
2022-08-20T07:28:39.797Z,19.94
2022-08-20T07:31:25.433Z,19.96
2022-08-20T07:33:55.310Z,19.97
2022-08-20T07:36:23.263Z,20.04
2022-08-20T07:38:50.976Z,20.09
2022-08-20T07:41:18.810Z,20.19
2022-08-20T07:43:46.551Z,20.30
2022-08-20T07:46:14.813Z,20.38
2022-08-20T07:48:46.267Z,20.42
2022-08-20T07:51:17.149Z,20.48
2022-08-20T07:53:46.451Z,20.63
2022-08-20T07:56:15.680Z,20.88
2022-08-20T07:58:50.110Z,21.04
2022-08-20T08:01:18.536Z,21.00
2022-08-20T08:03:49.967Z,20.90
2022-08-20T08:06:29.646Z,20.80
2022-08-20T08:09:01.988Z,20.76
2022-08-20T08:11:29.844Z,20.69
2022-08-20T08:13:56.820Z,20.71
2022-08-20T08:16:23.770Z,20.58
2022-08-20T08:18:56.631Z,20.54
2022-08-20T08:21:25.407Z,20.66
2022-08-20T08:23:53.433Z,20.86
2022-08-20T08:26:20.633Z,21.07
2022-08-20T08:28:47.601Z,21.23
2022-08-20T08:31:15.157Z,21.26
2022-08-20T08:33:42.704Z,21.58
2022-08-20T08:36:12.471Z,21.92
2022-08-20T08:38:44.123Z,22.32
2022-08-20T08:41:16.297Z,22.61
2022-08-20T08:43:46.670Z,23.00
2022-08-20T08:46:17.931Z,23.48
2022-08-20T08:48:47.643Z,23.66
2022-08-20T08:51:25.031Z,23.64
2022-08-20T08:53:56.842Z,23.59
2022-08-20T08:56:27.149Z,23.81
2022-08-20T08:58:55.692Z,23.96
2022-08-20T09:01:54.085Z,23.80
2022-08-20T09:04:12.688Z,23.42
2022-08-20T09:06:40.525Z,23.29
2022-08-20T09:09:15.845Z,22.72
2022-08-20T09:11:48.175Z,22.92
2022-08-20T09:14:15.064Z,23.15
2022-08-20T09:16:52.304Z,23.13
2022-08-20T09:19:20.363Z,23.20
2022-08-20T09:21:47.320Z,23.69
2022-08-20T09:24:15.793Z,24.10
2022-08-20T09:26:42.603Z,24.13
2022-08-20T09:29:09.988Z,23.89
2022-08-20T09:31:37.377Z,24.13
2022-08-20T09:34:05.289Z,23.79
2022-08-20T09:36:33.170Z,24.02
2022-08-20T09:39:00.429Z,24.03
2022-08-20T09:41:28.653Z,24.61
2022-08-20T09:43:55.589Z,24.58
2022-08-20T09:46:27.013Z,23.88
2022-08-20T09:48:54.622Z,23.92
2022-08-20T09:51:22.048Z,24.39
2022-08-20T09:53:49.386Z,24.89
2022-08-20T09:56:17.371Z,25.11
2022-08-20T09:58:49.950Z,24.73
2022-08-20T10:01:19.075Z,25.07
2022-08-20T10:03:50.954Z,25.19
2022-08-20T10:06:19.833Z,25.30
2022-08-20T10:08:47.212Z,25.22
2022-08-20T10:11:14.198Z,25.47
2022-08-20T10:13:41.103Z,25.67
2022-08-20T10:16:09.346Z,25.78
2022-08-20T10:18:36.617Z,25.83
2022-08-20T10:21:08.476Z,25.88
2022-08-20T10:23:35.461Z,25.79
2022-08-20T10:26:02.293Z,25.49
2022-08-20T10:28:29.140Z,25.72
2022-08-20T10:30:56.018Z,25.92
2022-08-20T10:33:24.313Z,25.95
2022-08-20T10:35:51.120Z,26.23
2022-08-20T10:38:21.663Z,26.19
2022-08-20T10:40:52.422Z,26.28
2022-08-20T10:43:19.418Z,26.28
2022-08-20T10:45:46.402Z,26.09
2022-08-20T10:48:13.938Z,26.56
2022-08-20T10:50:44.465Z,26.58
2022-08-20T10:53:11.427Z,26.70
2022-08-20T10:55:38.356Z,26.60
2022-08-20T10:58:05.955Z,26.56
2022-08-20T11:00:33.578Z,26.71
2022-08-20T11:03:00.452Z,26.46
2022-08-20T11:05:27.363Z,26.56
2022-08-20T11:07:59.867Z,26.49
2022-08-20T11:10:29.206Z,26.66
2022-08-20T11:12:56.564Z,26.70
2022-08-20T11:15:23.551Z,26.99
2022-08-20T11:17:50.658Z,27.28
2022-08-20T11:20:20.321Z,27.20
2022-08-20T11:22:47.212Z,27.35
2022-08-20T11:25:15.741Z,27.28
2022-08-20T11:27:46.398Z,27.26
2022-08-20T11:30:17.606Z,27.33
2022-08-20T11:32:44.483Z,27.27
2022-08-20T11:35:40.603Z,27.23
2022-08-20T11:37:59.578Z,27.42
2022-08-20T11:40:31.427Z,27.52
2022-08-20T11:43:14.050Z,27.35
2022-08-20T11:45:42.398Z,27.01
2022-08-20T11:48:09.270Z,26.93
2022-08-20T11:50:36.134Z,27.30
2022-08-20T11:53:02.999Z,27.33
2022-08-20T11:55:31.296Z,27.52
2022-08-20T11:58:00.806Z,27.24
2022-08-20T12:00:32.591Z,27.45
2022-08-20T12:03:00.720Z,27.64
2022-08-20T12:05:29.553Z,27.60
2022-08-20T12:07:57.684Z,27.63
2022-08-20T12:10:26.818Z,27.98
2022-08-20T12:12:55.329Z,27.80
2022-08-20T12:15:22.295Z,27.95
2022-08-20T12:17:49.140Z,27.96
2022-08-20T12:20:16.531Z,28.06
2022-08-20T12:22:44.597Z,28.13
2022-08-20T12:25:13.306Z,28.07
2022-08-20T12:27:40.482Z,28.17
2022-08-20T12:30:12.854Z,28.35
2022-08-20T12:32:40.408Z,28.26
2022-08-20T12:35:09.068Z,28.14
2022-08-20T12:37:36.822Z,27.78
2022-08-20T12:40:07.458Z,28.12
2022-08-20T12:42:34.531Z,28.35
2022-08-20T12:45:01.772Z,28.34
2022-08-20T12:47:32.059Z,27.94
2022-08-20T12:50:01.375Z,27.65
2022-08-20T12:52:30.563Z,27.79
2022-08-20T12:54:58.718Z,27.88
2022-08-20T12:57:28.724Z,28.08
2022-08-20T12:59:55.874Z,28.41
2022-08-20T13:02:22.871Z,28.45
2022-08-20T13:04:52.665Z,28.45
2022-08-20T13:07:19.716Z,28.55
2022-08-20T13:09:46.582Z,28.70
2022-08-20T13:12:14.626Z,28.43
2022-08-20T13:14:42.055Z,28.45
2022-08-20T13:17:09.401Z,28.53
2022-08-20T13:19:37.991Z,28.46
2022-08-20T13:22:06.221Z,28.46
2022-08-20T13:24:33.131Z,28.24
2022-08-20T13:27:07.347Z,28.29
2022-08-20T13:29:35.147Z,28.05
2022-08-20T13:32:02.529Z,28.01
2022-08-20T13:34:29.602Z,27.85
2022-08-20T13:36:56.548Z,27.97
2022-08-20T13:39:24.882Z,28.00
2022-08-20T13:41:51.758Z,27.81
2022-08-20T13:44:19.150Z,28.03
2022-08-20T13:46:47.241Z,27.98
2022-08-20T13:49:14.202Z,27.79
2022-08-20T13:51:41.231Z,27.87
2022-08-20T13:54:10.798Z,27.94
2022-08-20T13:56:39.404Z,28.09
2022-08-20T13:59:06.278Z,28.31
2022-08-20T14:01:33.802Z,28.39
2022-08-20T14:04:00.884Z,28.30
2022-08-20T14:06:28.082Z,28.32
2022-08-20T14:08:55.026Z,28.37
2022-08-20T14:11:21.919Z,28.16
2022-08-20T14:13:50.157Z,27.93
2022-08-20T14:16:21.317Z,28.15
2022-08-20T14:18:56.239Z,28.22
2022-08-20T14:21:23.089Z,28.11
2022-08-20T14:23:49.961Z,28.01
2022-08-20T14:26:16.822Z,28.24
2022-08-20T14:28:43.687Z,28.19
2022-08-20T14:31:11.865Z,27.95
2022-08-20T14:33:43.924Z,28.16
2022-08-20T14:36:11.570Z,28.18
2022-08-20T14:38:41.472Z,28.05
2022-08-20T14:41:08.351Z,27.73
2022-08-20T14:43:35.176Z,27.79
2022-08-20T14:46:02.086Z,27.85
2022-08-20T14:48:30.325Z,27.87
2022-08-20T14:50:59.419Z,27.96
2022-08-20T14:53:26.281Z,28.01
2022-08-20T14:55:53.162Z,27.94
2022-08-20T14:58:20.523Z,27.87
2022-08-20T15:00:47.420Z,27.74
2022-08-20T15:03:14.390Z,27.73
2022-08-20T15:05:42.805Z,27.72
2022-08-20T15:08:11.164Z,27.63
2022-08-20T15:10:39.130Z,27.46
2022-08-20T15:13:06.065Z,27.52
2022-08-20T15:15:33.207Z,27.60
2022-08-20T15:18:00.717Z,27.56
2022-08-20T15:20:31.215Z,27.56
2022-08-20T15:23:00.207Z,27.58
2022-08-20T15:25:36.590Z,27.49
2022-08-20T15:28:06.553Z,27.45
2022-08-20T15:30:33.459Z,27.44
2022-08-20T15:33:00.839Z,27.35
2022-08-20T15:35:28.431Z,27.19
2022-08-20T15:37:57.355Z,27.15
2022-08-20T15:40:28.962Z,27.25
2022-08-20T15:42:56.300Z,27.19
2022-08-20T15:45:23.113Z,26.98
2022-08-20T15:47:53.858Z,26.95
2022-08-20T15:50:34.852Z,27.02
2022-08-20T15:53:05.443Z,27.04
2022-08-20T15:55:36.012Z,26.96
2022-08-20T15:58:14.422Z,26.90
2022-08-20T16:00:48.849Z,26.81
2022-08-20T16:03:50.883Z,26.72
2022-08-20T16:06:22.981Z,26.72
2022-08-20T16:09:03.684Z,26.55
2022-08-20T16:11:53.466Z,26.55
2022-08-20T16:14:23.213Z,26.48
2022-08-20T16:17:01.055Z,26.46
2022-08-20T16:19:34.878Z,26.33
2022-08-20T16:22:04.759Z,26.21
2022-08-20T16:24:32.411Z,26.26
2022-08-20T16:27:14.464Z,26.33
2022-08-20T16:29:53.536Z,26.25
2022-08-20T16:32:32.658Z,26.13
2022-08-20T16:35:07.551Z,26.05
2022-08-20T16:37:38.127Z,25.92
2022-08-20T16:40:20.608Z,25.87
2022-08-20T16:42:52.387Z,25.94
2022-08-20T16:45:24.819Z,25.92
2022-08-20T16:47:54.863Z,25.86
2022-08-20T16:50:24.661Z,25.75
2022-08-20T16:52:52.117Z,25.69
2022-08-20T16:55:20.535Z,25.72
2022-08-20T16:57:49.231Z,25.65
2022-08-20T17:00:21.903Z,25.65
2022-08-20T17:02:50.842Z,25.56
2022-08-20T17:05:18.179Z,25.57
2022-08-20T17:07:51.321Z,25.43
2022-08-20T17:10:23.597Z,25.39
2022-08-20T17:12:59.553Z,25.35
2022-08-20T17:15:28.995Z,25.32
2022-08-20T17:17:56.308Z,25.25
2022-08-20T17:20:25.643Z,25.22
2022-08-20T17:23:14.752Z,25.17
2022-08-20T17:25:42.071Z,25.20
2022-08-20T17:28:18.796Z,25.10
2022-08-20T17:30:46.319Z,25.07
2022-08-20T17:33:23.148Z,24.98
2022-08-20T17:35:54.603Z,24.79
2022-08-20T17:38:28.560Z,24.77
2022-08-20T17:40:59.399Z,24.81
2022-08-20T17:43:30.730Z,24.82
2022-08-20T17:45:59.490Z,24.71
2022-08-20T17:48:35.854Z,24.64
2022-08-20T17:51:11.366Z,24.55
2022-08-20T17:53:43.131Z,24.48
2022-08-20T17:56:17.551Z,24.43
2022-08-20T17:58:54.066Z,24.31
2022-08-20T18:01:23.180Z,24.29
2022-08-20T18:03:51.670Z,24.27
2022-08-20T18:06:28.509Z,24.26
2022-08-20T18:09:02.847Z,24.16
2022-08-20T18:11:37.118Z,24.09
2022-08-20T18:14:30.478Z,24.01
2022-08-20T18:17:13.741Z,23.92
2022-08-20T18:20:08.632Z,23.80
2022-08-20T18:22:44.611Z,23.75
2022-08-20T18:25:23.457Z,23.69
2022-08-20T18:27:56.092Z,23.62
2022-08-20T18:30:26.136Z,23.53
2022-08-20T18:33:03.290Z,23.43
2022-08-20T18:35:36.692Z,23.35
2022-08-20T18:38:29.913Z,23.27
2022-08-20T18:41:15.479Z,23.19
2022-08-20T18:43:43.185Z,23.14
2022-08-20T18:46:22.058Z,23.06
2022-08-20T18:48:56.120Z,22.93
2022-08-20T18:51:29.960Z,22.79
2022-08-20T18:53:56.830Z,22.70
2022-08-20T18:56:42.128Z,22.59
2022-08-20T18:59:17.446Z,22.37
2022-08-20T19:01:48.287Z,22.11
2022-08-20T19:04:23.531Z,21.65
2022-08-20T19:06:57.604Z,21.68
2022-08-20T19:10:04.967Z,21.32
2022-08-20T19:12:50.272Z,21.31
2022-08-20T19:15:20.131Z,21.01
2022-08-20T19:18:02.009Z,20.83
2022-08-20T19:20:31.359Z,20.93
2022-08-20T19:23:04.734Z,20.76
2022-08-20T19:25:35.083Z,20.69
2022-08-20T19:28:08.792Z,20.46
2022-08-20T19:30:37.959Z,20.26
2022-08-20T19:33:09.038Z,20.14
2022-08-20T19:35:36.727Z,20.05
2022-08-20T19:38:06.867Z,19.99
2022-08-20T19:40:39.147Z,19.93
2022-08-20T19:43:14.232Z,19.84
2022-08-20T19:45:46.617Z,19.80
2022-08-20T19:48:42.860Z,19.77
2022-08-20T19:51:14.979Z,19.83
2022-08-20T19:53:47.361Z,19.84
2022-08-20T19:56:17.557Z,19.66
2022-08-20T19:58:45.135Z,19.49
2022-08-20T20:01:17.871Z,19.62
2022-08-20T20:03:58.701Z,19.77
2022-08-20T20:06:27.864Z,19.69
2022-08-20T20:08:58.517Z,19.60
2022-08-20T20:11:31.692Z,19.50
2022-08-20T20:14:02.661Z,19.21
2022-08-20T20:16:30.556Z,18.95
2022-08-20T20:19:22.669Z,18.87
2022-08-20T20:21:49.039Z,18.93
2022-08-20T20:24:23.651Z,18.99
2022-08-20T20:26:51.169Z,18.99
2022-08-20T20:29:24.207Z,18.98
2022-08-20T20:31:54.513Z,18.81
2022-08-20T20:34:27.190Z,18.83
2022-08-20T20:37:04.620Z,18.81
2022-08-20T20:39:33.858Z,18.81
2022-08-20T20:42:04.434Z,18.81
2022-08-20T20:44:37.339Z,18.68
2022-08-20T20:47:07.592Z,18.59
2022-08-20T20:49:50.747Z,18.53
2022-08-20T20:52:21.796Z,18.31
2022-08-20T20:54:48.977Z,18.21
2022-08-20T20:57:25.552Z,18.24
2022-08-20T21:00:09.680Z,18.40
2022-08-20T21:02:37.135Z,18.43
2022-08-20T21:05:05.843Z,18.38
2022-08-20T21:07:32.795Z,18.28
2022-08-20T21:09:59.850Z,18.24
2022-08-20T21:12:26.718Z,18.06
2022-08-20T21:14:53.554Z,18.09
2022-08-20T21:17:23.007Z,18.05
2022-08-20T21:19:51.757Z,17.95
2022-08-20T21:22:20.583Z,17.88
2022-08-20T21:24:51.286Z,17.79
2022-08-20T21:27:20.665Z,17.69
2022-08-20T21:29:47.573Z,17.61
2022-08-20T21:32:16.339Z,17.58
2022-08-20T21:34:43.250Z,17.48
2022-08-20T21:37:10.313Z,17.42
2022-08-20T21:39:38.681Z,17.45
2022-08-20T21:42:28.122Z,17.30
2022-08-20T21:44:55.072Z,17.37
2022-08-20T21:47:22.255Z,17.42
2022-08-20T21:49:49.119Z,17.43
2022-08-20T21:52:16.056Z,17.32
2022-08-20T21:54:44.292Z,17.19
2022-08-20T21:57:18.478Z,17.12
2022-08-20T21:59:45.677Z,17.34
2022-08-20T22:02:13.077Z,17.42
2022-08-20T22:04:40.037Z,17.38
2022-08-20T22:07:07.192Z,17.33
2022-08-20T22:09:36.098Z,17.17
2022-08-20T22:12:05.466Z,16.99
2022-08-20T22:14:32.459Z,17.08
2022-08-20T22:16:59.736Z,17.22
2022-08-20T22:19:26.590Z,17.20
2022-08-20T22:21:55.568Z,17.13
2022-08-20T22:24:23.466Z,16.93
2022-08-20T22:26:50.343Z,16.71
2022-08-20T22:29:18.568Z,16.89
2022-08-20T22:31:45.507Z,16.95
2022-08-20T22:34:14.897Z,16.91
2022-08-20T22:36:41.930Z,16.82
2022-08-20T22:39:09.321Z,16.75
2022-08-20T22:41:36.633Z,16.69
2022-08-20T22:44:04.323Z,16.65
2022-08-20T22:46:34.968Z,16.62
2022-08-20T22:49:03.175Z,16.52
2022-08-20T22:51:32.248Z,16.47
2022-08-20T22:54:02.679Z,16.42
2022-08-20T22:56:30.036Z,16.35
2022-08-20T22:58:59.376Z,16.29
2022-08-20T23:01:27.344Z,16.25
2022-08-20T23:04:00.109Z,16.19
2022-08-20T23:06:29.281Z,16.13
2022-08-20T23:08:56.256Z,16.11
2022-08-20T23:11:23.180Z,16.08
2022-08-20T23:13:49.988Z,16.05
2022-08-20T23:16:16.952Z,16.02
2022-08-20T23:18:44.255Z,16.02
2022-08-20T23:21:12.488Z,15.99
2022-08-20T23:23:39.351Z,15.97
2022-08-20T23:26:06.614Z,15.94
2022-08-20T23:28:33.789Z,15.89
2022-08-20T23:31:00.631Z,15.87
2022-08-20T23:33:27.509Z,15.84
2022-08-20T23:35:54.547Z,15.82
2022-08-20T23:38:22.985Z,15.80
2022-08-20T23:40:49.855Z,15.78
2022-08-20T23:43:18.650Z,15.75
2022-08-20T23:45:45.665Z,15.74
2022-08-20T23:48:12.490Z,15.72
2022-08-20T23:50:39.462Z,15.68
2022-08-20T23:53:06.351Z,15.65
2022-08-20T23:55:35.207Z,15.62
2022-08-20T23:58:02.104Z,15.58
